createdAt,value
2023-03-16T00:02:24.579Z,0.40
2023-03-16T00:04:51.603Z,0.57
2023-03-16T00:07:18.500Z,0.50
2023-03-16T00:09:45.384Z,0.38
2023-03-16T00:12:16.705Z,0.88
2023-03-16T00:14:44.531Z,0.22
2023-03-16T00:17:19.456Z,0.70
2023-03-16T00:19:55.328Z,0.52
2023-03-16T00:22:23.604Z,0.50
2023-03-16T00:24:50.471Z,0.50
2023-03-16T00:27:17.554Z,0.28
2023-03-16T00:29:56.112Z,0.82
2023-03-16T00:32:32.138Z,0.43
2023-03-16T00:34:59.439Z,0.60
2023-03-16T00:37:27.046Z,0.30
2023-03-16T00:39:56.542Z,0.68
2023-03-16T00:42:27.603Z,0.65
2023-03-16T00:44:58.095Z,0.60
2023-03-16T00:47:25.876Z,0.20
2023-03-16T00:49:52.766Z,0.50
2023-03-16T00:52:19.566Z,0.63
2023-03-16T00:54:47.160Z,0.75
2023-03-16T00:57:14.917Z,0.47
2023-03-16T00:59:42.394Z,0.40
2023-03-16T01:02:10.511Z,0.80
2023-03-16T01:04:37.685Z,0.57
2023-03-16T01:07:04.658Z,0.60
2023-03-16T01:09:37.064Z,0.43
2023-03-16T01:12:08.162Z,0.50
2023-03-16T01:14:35.791Z,0.20
2023-03-16T01:17:03.729Z,0.60
2023-03-16T01:19:30.873Z,0.40
2023-03-16T01:21:57.676Z,0.47
2023-03-16T01:24:24.481Z,0.38
2023-03-16T01:26:51.337Z,0.30
2023-03-16T01:29:18.075Z,0.30
2023-03-16T01:31:45.169Z,0.47
2023-03-16T01:34:16.821Z,0.30
2023-03-16T01:36:44.611Z,0.60
2023-03-16T01:39:11.872Z,0.32
2023-03-16T01:41:43.485Z,0.30
2023-03-16T01:44:14.461Z,0.30
2023-03-16T01:46:42.803Z,0.50
2023-03-16T01:49:20.533Z,0.40
2023-03-16T01:51:52.225Z,0.40
2023-03-16T01:54:31.716Z,0.30
2023-03-16T01:57:10.390Z,0.50
2023-03-16T02:00:21.101Z,0.20
2023-03-16T02:03:00.274Z,0.30
2023-03-16T02:05:42.503Z,0.30
2023-03-16T02:08:13.501Z,0.40
2023-03-16T02:10:41.304Z,0.32
2023-03-16T02:13:08.426Z,0.70
2023-03-16T02:15:36.325Z,0.70
2023-03-16T02:18:04.299Z,0.30
2023-03-16T02:20:42.703Z,0.40
2023-03-16T02:23:18.737Z,0.65
2023-03-16T02:26:13.863Z,0.50
2023-03-16T02:28:50.000Z,0.55
2023-03-16T02:31:17.489Z,0.85
2023-03-16T02:33:45.438Z,0.45
2023-03-16T02:36:14.156Z,0.40
2023-03-16T02:38:41.670Z,1.00
2023-03-16T02:41:12.754Z,0.60
2023-03-16T02:43:41.739Z,0.40
2023-03-16T02:46:25.701Z,0.63
2023-03-16T02:49:03.752Z,0.55
2023-03-16T02:51:30.803Z,0.40
2023-03-16T02:53:57.703Z,0.60
2023-03-16T02:56:26.264Z,0.47
2023-03-16T02:58:53.281Z,0.43
2023-03-16T03:01:20.777Z,0.20
2023-03-16T03:03:48.825Z,0.20
2023-03-16T03:06:15.644Z,0.38
2023-03-16T03:08:42.952Z,0.40
2023-03-16T03:11:10.002Z,0.40
2023-03-16T03:13:39.456Z,1.10
2023-03-16T03:16:11.562Z,0.40
2023-03-16T03:18:38.545Z,0.57
2023-03-16T03:21:06.254Z,0.40
2023-03-16T03:23:35.661Z,0.20
2023-03-16T03:26:03.168Z,0.22
2023-03-16T03:28:31.251Z,0.20
2023-03-16T03:30:58.022Z,0.35
2023-03-16T03:33:25.865Z,0.30
2023-03-16T03:35:57.385Z,0.30
2023-03-16T03:38:26.063Z,0.30
2023-03-16T03:40:54.688Z,0.22
2023-03-16T03:43:21.479Z,0.20
2023-03-16T03:45:49.500Z,0.40
2023-03-16T03:48:16.542Z,0.10
2023-03-16T03:50:43.287Z,0.30
2023-03-16T03:53:30.267Z,0.20
2023-03-16T03:56:23.125Z,0.20
2023-03-16T03:58:50.315Z,0.50
2023-03-16T04:01:26.830Z,0.50
2023-03-16T04:03:53.617Z,0.35
2023-03-16T04:06:20.668Z,0.32
2023-03-16T04:08:47.489Z,0.30
2023-03-16T04:11:18.529Z,0.45
2023-03-16T04:13:45.599Z,0.50
2023-03-16T04:16:16.354Z,0.32
2023-03-16T04:18:46.333Z,0.20
2023-03-16T04:21:16.097Z,0.30
2023-03-16T04:23:44.652Z,0.30
2023-03-16T04:26:11.995Z,0.10
2023-03-16T04:28:40.749Z,0.40
2023-03-16T04:31:10.946Z,0.60
2023-03-16T04:33:42.558Z,0.90
2023-03-16T04:36:09.939Z,0.25
2023-03-16T04:38:38.353Z,0.70
2023-03-16T04:41:05.867Z,0.20
2023-03-16T04:43:37.196Z,0.75
2023-03-16T04:46:11.002Z,0.50
2023-03-16T04:48:38.469Z,0.43
2023-03-16T04:51:06.825Z,0.28
2023-03-16T04:53:38.120Z,0.40
2023-03-16T04:56:19.631Z,0.60
2023-03-16T04:58:52.122Z,0.50
2023-03-16T05:01:21.101Z,1.67
2023-03-16T05:03:53.074Z,0.70
2023-03-16T05:06:20.546Z,0.93
2023-03-16T05:08:47.637Z,0.93
2023-03-16T05:11:14.563Z,1.20
2023-03-16T05:13:50.907Z,0.95
2023-03-16T05:16:18.196Z,1.02
2023-03-16T05:18:46.218Z,0.90
2023-03-16T05:21:13.150Z,2.70
2023-03-16T05:24:00.292Z,1.50
2023-03-16T05:26:27.381Z,0.63
2023-03-16T05:28:55.139Z,0.75
2023-03-16T05:31:26.917Z,1.10
2023-03-16T05:33:57.635Z,0.93
2023-03-16T05:36:25.043Z,0.75
2023-03-16T05:38:56.323Z,0.70
2023-03-16T05:41:34.966Z,0.40
2023-03-16T05:44:25.152Z,1.30
2023-03-16T05:47:04.679Z,0.98
2023-03-16T05:49:34.056Z,1.00
2023-03-16T05:52:05.581Z,0.70
2023-03-16T05:54:34.807Z,0.60
2023-03-16T05:57:02.007Z,0.88
2023-03-16T05:59:30.371Z,1.20
2023-03-16T06:01:58.027Z,0.43
2023-03-16T06:04:26.316Z,0.98
2023-03-16T06:06:53.304Z,0.82
2023-03-16T06:09:22.671Z,0.50
2023-03-16T06:11:49.654Z,1.17
2023-03-16T06:14:17.789Z,0.63
2023-03-16T06:16:45.577Z,1.13
2023-03-16T06:19:13.927Z,0.90
2023-03-16T06:21:41.595Z,0.73
2023-03-16T06:24:10.416Z,1.30
2023-03-16T06:26:37.253Z,0.88
2023-03-16T06:29:07.165Z,0.98
2023-03-16T06:31:36.408Z,1.15
2023-03-16T06:34:03.612Z,1.02
2023-03-16T06:36:31.128Z,0.95
2023-03-16T06:39:00.917Z,1.40
2023-03-16T06:41:35.884Z,0.43
2023-03-16T06:44:02.976Z,1.65
2023-03-16T06:46:30.653Z,1.15
2023-03-16T06:49:01.233Z,1.30
2023-03-16T06:51:29.252Z,0.80
2023-03-16T06:53:56.556Z,0.77
2023-03-16T06:56:24.440Z,0.60
2023-03-16T06:58:52.217Z,0.80
2023-03-16T07:01:19.267Z,1.05
2023-03-16T07:03:46.233Z,0.80
2023-03-16T07:06:18.130Z,2.38
2023-03-16T07:08:45.062Z,0.55
2023-03-16T07:11:12.818Z,1.05
2023-03-16T07:13:39.695Z,0.77
2023-03-16T07:16:07.554Z,0.88
2023-03-16T07:18:34.473Z,1.02
2023-03-16T07:21:01.951Z,1.17
2023-03-16T07:23:29.174Z,0.98
2023-03-16T07:26:03.974Z,0.73
2023-03-16T07:28:34.191Z,0.67
2023-03-16T07:31:04.358Z,1.45
2023-03-16T07:33:38.669Z,0.60
2023-03-16T07:36:10.963Z,0.80
2023-03-16T07:38:43.505Z,1.23
2023-03-16T07:41:12.138Z,1.20
2023-03-16T07:43:39.078Z,0.70
2023-03-16T07:46:09.716Z,0.80
2023-03-16T07:48:37.616Z,1.13
2023-03-16T07:51:04.622Z,1.48
2023-03-16T07:53:32.359Z,2.95
2023-03-16T07:56:14.300Z,0.90
2023-03-16T07:58:44.732Z,0.50
2023-03-16T08:01:12.019Z,0.77
2023-03-16T08:03:39.279Z,0.80
2023-03-16T08:06:07.072Z,1.02
2023-03-16T08:08:34.877Z,0.68
2023-03-16T08:11:01.888Z,0.60
2023-03-16T08:13:44.098Z,0.50
2023-03-16T08:16:13.898Z,0.88
2023-03-16T08:18:43.992Z,0.60
2023-03-16T08:21:11.758Z,0.80
2023-03-16T08:23:38.973Z,0.70
2023-03-16T08:26:09.225Z,0.70
2023-03-16T08:28:37.914Z,0.73
2023-03-16T08:31:09.175Z,0.50
2023-03-16T08:33:44.237Z,1.75
2023-03-16T08:36:12.455Z,0.47
2023-03-16T08:38:40.993Z,0.55
2023-03-16T08:41:10.123Z,0.43
2023-03-16T08:43:37.815Z,0.75
2023-03-16T08:46:05.752Z,0.40
2023-03-16T08:48:44.143Z,0.47
2023-03-16T08:51:11.893Z,0.40
2023-03-16T08:53:38.791Z,0.50
2023-03-16T08:56:06.880Z,1.02
2023-03-16T08:58:34.435Z,0.57
2023-03-16T09:01:02.180Z,0.60
2023-03-16T09:03:29.115Z,0.70
2023-03-16T09:06:00.948Z,0.47
2023-03-16T09:08:28.715Z,0.50
2023-03-16T09:11:05.865Z,0.45
2023-03-16T09:13:33.109Z,0.90
2023-03-16T09:16:00.167Z,0.70
2023-03-16T09:18:27.901Z,0.82
2023-03-16T09:21:00.132Z,1.13
2023-03-16T09:23:28.142Z,1.00
2023-03-16T09:25:59.901Z,0.68
2023-03-16T09:28:31.283Z,1.38
2023-03-16T09:30:58.954Z,0.52
2023-03-16T09:33:26.217Z,0.95
2023-03-16T09:35:53.500Z,1.25
2023-03-16T09:38:20.833Z,0.93
2023-03-16T09:40:56.022Z,1.67
2023-03-16T09:44:01.629Z,1.35
2023-03-16T09:46:30.865Z,1.00
2023-03-16T09:48:58.897Z,0.93
2023-03-16T09:51:49.071Z,1.85
2023-03-16T09:54:18.945Z,1.40
2023-03-16T09:56:47.026Z,1.08
2023-03-16T09:59:15.664Z,2.60
2023-03-16T10:01:50.647Z,2.10
2023-03-16T10:04:34.793Z,1.35
2023-03-16T10:07:06.677Z,1.15
2023-03-16T10:09:36.641Z,2.50
2023-03-16T10:12:04.692Z,1.83
2023-03-16T10:14:41.368Z,1.30
2023-03-16T10:17:19.307Z,3.05
2023-03-16T10:19:49.872Z,2.42
2023-03-16T10:22:35.004Z,1.90
2023-03-16T10:25:08.465Z,2.08
2023-03-16T10:27:40.543Z,1.30
2023-03-16T10:30:42.838Z,1.55
2023-03-16T10:33:18.843Z,2.25
2023-03-16T10:35:51.550Z,2.92
2023-03-16T10:38:39.294Z,3.60
2023-03-16T10:41:35.618Z,3.80
2023-03-16T10:44:09.202Z,3.78
2023-03-16T10:46:40.942Z,2.53
2023-03-16T10:49:19.900Z,2.47
2023-03-16T10:51:46.971Z,3.17
2023-03-16T10:54:20.126Z,3.25
2023-03-16T10:56:47.217Z,1.92
2023-03-16T10:59:15.488Z,2.88
2023-03-16T11:01:44.710Z,3.72
2023-03-16T11:04:15.768Z,3.60
2023-03-16T11:06:48.601Z,2.47
2023-03-16T11:09:19.952Z,2.15
2023-03-16T11:14:15.757Z,3.53
2023-03-16T11:16:48.590Z,3.97
2023-03-16T11:19:29.589Z,3.40
2023-03-16T11:22:05.191Z,4.43
2023-03-16T11:24:43.081Z,3.35
2023-03-16T11:27:38.939Z,3.10
2023-03-16T11:30:20.307Z,3.10
2023-03-16T11:32:49.464Z,5.50
2023-03-16T11:35:22.419Z,2.10
2023-03-16T11:38:07.789Z,3.80
2023-03-16T11:40:56.263Z,4.32
2023-03-16T11:43:32.605Z,1.73
2023-03-16T11:46:11.984Z,1.75
2023-03-16T11:48:45.025Z,1.60
2023-03-16T11:51:20.743Z,2.22
2023-03-16T11:54:08.065Z,2.17
2023-03-16T11:56:53.710Z,1.52
2023-03-16T11:59:34.494Z,3.00
2023-03-16T12:02:34.430Z,2.00
2023-03-16T12:05:23.581Z,1.98
2023-03-16T12:08:17.197Z,2.20
2023-03-16T12:10:50.857Z,1.83
2023-03-16T12:13:23.263Z,2.67
2023-03-16T12:15:56.387Z,3.28
2023-03-16T12:18:45.784Z,2.30
2023-03-16T12:21:18.646Z,1.73
2023-03-16T12:24:04.896Z,5.13
2023-03-16T12:26:33.828Z,4.88
2023-03-16T12:29:06.406Z,6.75
2023-03-16T12:31:40.672Z,5.35
2023-03-16T12:34:10.531Z,5.20
2023-03-16T12:36:58.406Z,3.45
2023-03-16T12:39:33.292Z,2.55
2023-03-16T12:42:08.795Z,4.65
2023-03-16T12:44:44.297Z,4.10
2023-03-16T12:47:32.088Z,3.13
2023-03-16T12:50:09.646Z,2.75
2023-03-16T12:52:40.720Z,3.53
2023-03-16T12:55:15.795Z,3.25
2023-03-16T12:57:43.846Z,3.13
2023-03-16T13:00:12.370Z,3.13
2023-03-16T13:02:43.290Z,2.03
2023-03-16T13:05:17.722Z,3.05
2023-03-16T13:07:48.476Z,3.40
2023-03-16T13:10:16.865Z,3.58
2023-03-16T13:12:44.164Z,4.70
2023-03-16T13:15:40.246Z,4.68
2023-03-16T13:18:27.608Z,3.25
2023-03-16T13:20:57.218Z,5.80
2023-03-16T13:23:26.705Z,4.20
2023-03-16T13:26:25.864Z,5.05
2023-03-16T13:28:54.899Z,5.25
2023-03-16T13:31:26.091Z,5.85
2023-03-16T13:33:55.758Z,6.80
2023-03-16T13:36:23.201Z,2.72
2023-03-16T13:39:08.946Z,3.70
2023-03-16T13:41:36.695Z,5.25
2023-03-16T13:44:05.232Z,3.42
2023-03-16T13:46:32.377Z,4.20
2023-03-16T13:49:02.639Z,2.80
2023-03-16T13:51:32.091Z,4.28
2023-03-16T13:53:59.571Z,3.42
2023-03-16T13:56:27.246Z,4.60
2023-03-16T13:58:54.814Z,4.63
2023-03-16T14:01:26.584Z,4.97
2023-03-16T14:03:55.558Z,4.30
2023-03-16T14:06:27.247Z,4.60
2023-03-16T14:08:58.663Z,4.05
2023-03-16T14:13:55.086Z,4.13
2023-03-16T14:16:26.370Z,5.40
2023-03-16T14:19:17.402Z,4.25
2023-03-16T14:21:45.834Z,5.28
2023-03-16T14:24:20.264Z,3.40
2023-03-16T14:26:47.998Z,5.95
2023-03-16T14:29:20.286Z,4.00
2023-03-16T14:31:49.103Z,6.40
2023-03-16T14:34:21.742Z,5.60
2023-03-16T14:36:49.243Z,6.22
2023-03-16T14:39:19.801Z,5.43
2023-03-16T14:41:52.529Z,8.00
2023-03-16T14:44:21.668Z,7.45
2023-03-16T14:46:49.546Z,4.85
2023-03-16T14:49:25.138Z,5.18
2023-03-16T14:51:53.060Z,7.03
2023-03-16T14:54:22.529Z,5.57
2023-03-16T14:56:51.010Z,5.95
2023-03-16T14:59:18.412Z,6.05
2023-03-16T15:01:46.358Z,3.63
2023-03-16T15:04:14.878Z,4.25
2023-03-16T15:06:42.496Z,4.07
2023-03-16T15:09:28.581Z,5.20
2023-03-16T15:11:55.938Z,5.55
2023-03-16T15:14:42.451Z,6.53
2023-03-16T15:17:10.818Z,4.30
2023-03-16T15:19:37.729Z,5.05
2023-03-16T15:22:05.701Z,4.07
2023-03-16T15:24:33.622Z,5.57
2023-03-16T15:27:01.212Z,5.00
2023-03-16T15:29:28.229Z,5.80
2023-03-16T15:31:55.222Z,4.55
2023-03-16T15:34:23.406Z,4.43
2023-03-16T15:36:50.468Z,4.38
2023-03-16T15:39:22.061Z,5.50
2023-03-16T15:44:17.637Z,5.90
2023-03-16T15:46:44.743Z,4.13
2023-03-16T15:49:11.896Z,5.03
2023-03-16T15:51:39.449Z,6.43
2023-03-16T15:54:09.219Z,4.93
2023-03-16T15:56:52.736Z,5.90
2023-03-16T15:59:22.541Z,8.02
2023-03-16T16:01:49.975Z,6.57
2023-03-16T16:04:20.058Z,4.15
2023-03-16T16:06:48.125Z,4.20
2023-03-16T16:09:15.392Z,5.72
2023-03-16T16:11:42.572Z,4.82
2023-03-16T16:14:12.678Z,4.22
2023-03-16T16:16:41.015Z,5.90
2023-03-16T16:19:12.716Z,4.93
2023-03-16T16:21:40.407Z,5.55
2023-03-16T16:24:09.048Z,6.72
2023-03-16T16:26:49.842Z,4.50
2023-03-16T16:29:22.608Z,6.22
2023-03-16T16:32:00.491Z,5.00
2023-03-16T16:34:30.615Z,4.25
2023-03-16T16:36:57.873Z,4.65
2023-03-16T16:39:27.738Z,4.07
2023-03-16T16:41:57.172Z,3.83
2023-03-16T16:44:27.515Z,6.05
2023-03-16T16:46:55.042Z,5.50
2023-03-16T16:49:29.572Z,6.43
2023-03-16T16:51:56.813Z,5.35
2023-03-16T16:54:26.071Z,4.85
2023-03-16T16:56:54.230Z,6.28
2023-03-16T16:59:31.771Z,4.60
2023-03-16T17:02:00.686Z,5.57
2023-03-16T17:04:28.771Z,6.10
2023-03-16T17:06:59.019Z,5.85
2023-03-16T17:09:26.429Z,5.20
2023-03-16T17:11:56.133Z,4.47
2023-03-16T17:14:24.103Z,7.10
2023-03-16T17:16:52.086Z,7.18
2023-03-16T17:19:23.509Z,5.07
2023-03-16T17:21:51.209Z,6.35
2023-03-16T17:24:18.021Z,6.88
2023-03-16T17:26:46.674Z,7.22
2023-03-16T17:29:22.754Z,8.25
2023-03-16T17:31:50.766Z,8.07
2023-03-16T17:34:22.174Z,4.95
2023-03-16T17:39:21.145Z,4.28
2023-03-16T17:42:08.264Z,6.60
2023-03-16T17:44:38.136Z,6.55
2023-03-16T17:47:12.717Z,5.45
2023-03-16T17:49:40.530Z,6.28
2023-03-16T17:52:18.951Z,4.55
2023-03-16T17:54:47.340Z,4.95
2023-03-16T17:57:16.691Z,6.40
2023-03-16T17:59:44.263Z,5.13
2023-03-16T18:02:24.656Z,6.60
2023-03-16T18:04:51.838Z,4.88
2023-03-16T18:07:18.728Z,6.60
2023-03-16T18:09:45.913Z,4.30
2023-03-16T18:12:12.851Z,6.85
2023-03-16T18:14:39.958Z,6.50
2023-03-16T18:17:24.160Z,5.78
2023-03-16T18:19:51.108Z,8.48
2023-03-16T18:22:20.798Z,5.88
2023-03-16T18:24:48.844Z,6.63
2023-03-16T18:27:16.233Z,6.90
2023-03-16T18:29:43.824Z,6.22
2023-03-16T18:32:22.681Z,7.97
2023-03-16T18:34:50.112Z,4.60
2023-03-16T18:37:20.863Z,12.35
2023-03-16T18:39:48.479Z,8.50
2023-03-16T18:42:22.405Z,6.20
2023-03-16T18:44:49.306Z,6.00
2023-03-16T18:47:18.765Z,5.20
2023-03-16T18:49:49.402Z,5.82
2023-03-16T18:52:19.194Z,9.73
2023-03-16T18:54:47.261Z,10.82
2023-03-16T18:57:18.647Z,11.02
2023-03-16T18:59:45.667Z,7.38
2023-03-16T19:02:29.179Z,7.00
2023-03-16T19:04:58.237Z,6.30
2023-03-16T19:07:36.226Z,8.18
2023-03-16T19:10:05.745Z,15.65
2023-03-16T19:12:33.472Z,13.13
2023-03-16T19:15:00.696Z,12.32
2023-03-16T19:17:27.584Z,10.68
2023-03-16T19:19:54.559Z,8.27
2023-03-16T19:22:22.086Z,8.02
2023-03-16T19:24:53.062Z,8.32
2023-03-16T19:27:21.924Z,6.85
2023-03-16T19:29:51.636Z,8.48
2023-03-16T19:32:19.860Z,7.07
2023-03-16T19:34:47.142Z,5.15
2023-03-16T19:37:19.804Z,5.13
2023-03-16T19:39:46.873Z,6.57
2023-03-16T19:42:26.787Z,8.18
2023-03-16T19:44:53.789Z,5.63
2023-03-16T19:47:31.334Z,5.55
2023-03-16T19:49:59.154Z,6.10
2023-03-16T19:52:26.867Z,9.43
2023-03-16T19:54:53.802Z,7.15
2023-03-16T19:57:21.408Z,6.32
2023-03-16T19:59:49.735Z,7.50
2023-03-16T20:02:27.398Z,6.88
2023-03-16T20:04:55.020Z,8.30
2023-03-16T20:07:22.054Z,6.63
2023-03-16T20:09:48.959Z,6.10
2023-03-16T20:12:23.827Z,7.82
2023-03-16T20:14:51.555Z,7.20
2023-03-16T20:17:26.353Z,5.88
2023-03-16T20:19:53.465Z,6.80
2023-03-16T20:22:21.814Z,5.38
2023-03-16T20:24:49.709Z,6.80
2023-03-16T20:27:17.332Z,6.00
2023-03-16T20:29:44.544Z,8.02
2023-03-16T20:32:18.885Z,4.40
2023-03-16T20:34:46.723Z,4.72
2023-03-16T20:37:32.444Z,5.68
2023-03-16T20:40:00.046Z,6.15
2023-03-16T20:42:31.098Z,5.22
2023-03-16T20:44:58.232Z,6.20
2023-03-16T20:47:25.737Z,5.50
2023-03-16T20:49:53.455Z,7.10
2023-03-16T20:52:24.627Z,4.57
2023-03-16T20:54:51.413Z,4.10
2023-03-16T20:57:23.073Z,4.45
2023-03-16T20:59:51.840Z,4.10
2023-03-16T21:02:25.673Z,4.55
2023-03-16T21:04:56.111Z,5.35
2023-03-16T21:07:23.329Z,4.97
2023-03-16T21:09:50.488Z,4.80
2023-03-16T21:12:22.684Z,3.92
2023-03-16T21:14:49.648Z,4.55
2023-03-16T21:17:27.112Z,5.60
2023-03-16T21:19:53.918Z,5.43
2023-03-16T21:22:30.970Z,4.63
2023-03-16T21:24:58.400Z,4.63
2023-03-16T21:27:26.995Z,3.60
2023-03-16T21:29:55.141Z,4.13
2023-03-16T21:32:24.298Z,3.90
2023-03-16T21:34:51.227Z,4.78
2023-03-16T21:37:19.145Z,5.85
2023-03-16T21:39:46.491Z,4.65
2023-03-16T21:42:13.545Z,4.35
2023-03-16T21:44:40.368Z,4.15
2023-03-16T21:47:27.468Z,3.70
2023-03-16T21:49:54.790Z,3.78
2023-03-16T21:52:23.872Z,4.50
2023-03-16T21:54:51.684Z,3.35
2023-03-16T21:57:19.820Z,3.88
2023-03-16T21:59:47.294Z,4.65
2023-03-16T22:02:19.116Z,4.88
2023-03-16T22:04:46.134Z,4.63
2023-03-16T22:07:13.059Z,3.60
2023-03-16T22:09:39.948Z,4.22
2023-03-16T22:12:09.717Z,3.85
2023-03-16T22:14:36.925Z,4.25
2023-03-16T22:17:03.781Z,4.60
2023-03-16T22:19:30.629Z,4.07
2023-03-16T22:21:57.566Z,6.45
2023-03-16T22:24:26.573Z,3.72
2023-03-16T22:26:54.956Z,3.13
2023-03-16T22:29:26.541Z,3.95
2023-03-16T22:31:56.266Z,3.97
2023-03-16T22:34:31.492Z,3.58
2023-03-16T22:36:58.969Z,3.95
2023-03-16T22:39:25.850Z,4.85
2023-03-16T22:41:52.732Z,3.85
2023-03-16T22:44:22.487Z,3.90
2023-03-16T22:46:49.833Z,3.30
2023-03-16T22:49:21.268Z,2.60
2023-03-16T22:54:17.805Z,3.30
2023-03-16T22:56:45.409Z,3.85
2023-03-16T22:59:14.978Z,2.63
2023-03-16T23:01:44.682Z,3.47
2023-03-16T23:04:20.162Z,3.40
2023-03-16T23:06:49.699Z,3.50
2023-03-16T23:09:17.293Z,4.63
2023-03-16T23:11:44.819Z,3.15
2023-03-16T23:14:14.372Z,3.17
2023-03-16T23:16:41.925Z,3.97
2023-03-16T23:19:37.891Z,4.95
2023-03-16T23:22:06.283Z,4.22
2023-03-16T23:24:33.832Z,3.22
2023-03-16T23:27:00.780Z,3.97
2023-03-16T23:29:28.097Z,3.20
2023-03-16T23:31:55.007Z,2.92
2023-03-16T23:34:23.297Z,3.53
2023-03-16T23:36:51.001Z,4.18
2023-03-16T23:39:17.760Z,3.80
2023-03-16T23:41:47.170Z,3.97
2023-03-16T23:44:18.505Z,3.00
2023-03-16T23:46:45.415Z,3.70
2023-03-16T23:49:17.759Z,3.33
2023-03-16T23:51:45.733Z,2.90
2023-03-16T23:54:23.334Z,2.95
2023-03-16T23:56:50.775Z,2.90
2023-03-16T23:59:17.828Z,4.20
